Time;durP1;ratioP1;P1;durP2;ratioP2;P2;SDS_P1;SDS_P2;PMS_P1;PMS_P2;Temp;Humidity;BMP_temperature;BMP_pressure;BME280_temperature;BME280_humidity;BME280_pressure;Samples;Min_cycle;Max_cycle;Signal;HPM_P1;HPM_P2
2022/05/11 00:01:37;;;;;;;18.55;8.33;;;;;;;11.61;39.60;100148.61;1718374;82;21018;-63
2022/05/11 00:04:06;;;;;;;17.25;8.93;;;;;;;11.62;39.61;100144.49;1718739;81;21453;-54
2022/05/11 00:06:33;;;;;;;17.25;9.25;;;;;;;11.57;39.70;100146.08;1719184;82;21233;-54
2022/05/11 00:09:03;;;;;;;18.87;9.53;;;;;;;11.56;39.78;100140.56;1718941;82;20912;-56
2022/05/11 00:11:30;;;;;;;23.50;9.43;;;;;;;11.55;39.76;100141.54;1718624;82;21563;-63
2022/05/11 00:13:59;;;;;;;20.00;9.58;;;;;;;11.49;39.80;100143.62;1718789;82;21515;-54
2022/05/11 00:16:27;;;;;;;21.15;9.63;;;;;;;11.41;39.96;100146.69;1719282;82;21536;-55
2022/05/11 00:18:54;;;;;;;21.82;9.80;;;;;;;11.37;40.01;100145.47;1718237;82;21224;-55
2022/05/11 00:21:22;;;;;;;20.68;9.18;;;;;;;11.36;39.99;100142.52;1717780;82;21074;-57
2022/05/11 00:23:50;;;;;;;20.30;9.25;;;;;;;11.30;40.03;100140.70;1656266;85;21062;-57
2022/05/11 00:26:18;;;;;;;17.45;9.45;;;;;;;11.26;40.16;100139.97;1709723;83;21115;-55
2022/05/11 00:28:46;;;;;;;18.27;9.08;;;;;;;11.24;40.16;100139.34;1709193;83;21469;-55
2022/05/11 00:31:14;;;;;;;15.05;8.75;;;;;;;11.20;40.05;100131.88;1710085;83;22590;-54
2022/05/11 00:33:41;;;;;;;16.67;8.80;;;;;;;11.19;40.02;100134.69;1709672;83;20920;-54
2022/05/11 00:36:11;;;;;;;19.32;8.95;;;;;;;11.07;40.15;100134.91;1708314;83;21651;-55
2022/05/11 00:38:38;;;;;;;23.65;9.23;;;;;;;11.10;40.15;100130.12;1710014;83;21074;-57
2022/05/11 00:41:06;;;;;;;19.40;9.88;;;;;;;11.04;40.22;100135.28;1709224;83;21023;-58
2022/05/11 00:43:40;;;;;;;21.93;10.25;;;;;;;11.00;40.23;100132.74;1709482;83;21261;-59
2022/05/11 00:46:30;;;;;;;20.27;10.32;;;;;;;11.04;39.92;100128.76;1709503;83;21078;-55
2022/05/11 00:51:50;;;;;;;22.22;10.88;;;;;;;10.87;39.86;100136.03;1709214;83;22030;-54
2022/05/11 00:54:18;;;;;;;20.75;11.18;;;;;;;10.79;39.82;100135.66;1708838;83;21126;-54
2022/05/11 00:56:50;;;;;;;22.20;11.00;;;;;;;10.84;39.75;100134.63;1708756;83;21030;-55
2022/05/11 00:59:21;;;;;;;22.02;10.40;;;;;;;10.80;39.71;100139.11;1709321;83;21854;-54
2022/05/11 01:01:48;;;;;;;20.80;10.55;;;;;;;10.76;39.73;100140.44;1709022;83;25906;-54
2022/05/11 01:04:20;;;;;;;19.20;11.12;;;;;;;10.76;39.66;100133.92;1708954;83;22195;-58
2022/05/11 01:06:47;;;;;;;23.00;11.40;;;;;;;10.68;39.71;100137.00;1708399;83;21132;-64
2022/05/11 01:09:14;;;;;;;20.43;10.90;;;;;;;10.62;39.81;100127.30;1709709;83;21824;-56
2022/05/11 01:11:49;;;;;;;16.85;10.65;;;;;;;10.64;39.77;100126.60;1710395;83;20987;-55
2022/05/11 01:14:19;;;;;;;19.55;9.83;;;;;;;10.59;39.84;100125.56;1709531;83;21013;-56
2022/05/11 01:16:47;;;;;;;15.15;8.65;;;;;;;10.53;39.95;100132.34;1709262;83;21427;-57
2022/05/11 01:19:25;;;;;;;21.02;9.15;;;;;;;10.52;39.81;100125.48;1709776;83;21013;-55
2022/05/11 01:22:25;;;;;;;17.42;8.30;;;;;;;10.47;39.86;100122.64;1698563;83;22050;-59
2022/05/11 01:24:52;;;;;;;16.90;8.08;;;;;;;10.53;39.68;100127.12;1698740;83;21060;-54
2022/05/11 01:27:30;;;;;;;16.02;8.83;;;;;;;10.51;39.70;100117.37;1709870;83;20958;-55
2022/05/11 01:30:02;;;;;;;15.65;8.05;;;;;;;10.50;39.70;100117.06;1698735;83;21660;-55
2022/05/11 01:32:30;;;;;;;15.03;7.95;;;;;;;10.52;39.52;100119.47;1708262;83;21042;-55
2022/05/11 01:35:29;;;;;;;18.00;8.45;;;;;;;10.59;39.41;100115.94;1710386;83;21245;-54
2022/05/11 01:38:25;;;;;;;15.15;8.65;;;;;;;10.58;39.30;100114.83;1706996;83;21069;-55
2022/05/11 01:40:52;;;;;;;11.10;6.30;;;;;;;10.53;39.35;100113.27;1688484;83;21590;-56
2022/05/11 01:43:22;;;;;;;12.78;6.70;;;;;;;10.50;39.34;100114.95;1708976;83;21066;-64
2022/05/11 01:45:49;;;;;;;12.25;6.65;;;;;;;10.50;39.30;100107.14;1708629;83;21527;-55
2022/05/11 01:48:16;;;;;;;13.35;7.05;;;;;;;10.46;39.41;100108.81;1709648;83;21090;-63
2022/05/11 01:50:43;;;;;;;14.85;8.03;;;;;;;10.42;39.40;100108.88;1709021;83;21562;-55
2022/05/11 01:53:11;;;;;;;13.68;6.70;;;;;;;10.34;39.51;100107.70;1710085;83;21046;-56
2022/05/11 01:55:38;;;;;;;11.48;6.17;;;;;;;10.32;39.53;100107.06;1708444;83;21074;-55
2022/05/11 01:58:11;;;;;;;12.45;5.97;;;;;;;10.29;39.57;100106.12;1708970;83;21434;-54
2022/05/11 02:00:38;;;;;;;13.00;6.45;;;;;;;10.29;39.64;100104.81;1707537;83;22203;-55
2022/05/11 02:03:06;;;;;;;10.65;4.85;;;;;;;10.29;39.63;100105.31;1710421;83;21054;-55
2022/05/11 02:08:20;;;;;;;10.30;5.37;;;;;;;10.31;39.50;100100.23;1706521;83;20962;-57
2022/05/11 02:10:49;;;;;;;8.68;4.17;;;;;;;10.41;39.42;100103.83;1706618;83;21528;-56
2022/05/11 02:13:16;;;;;;;9.33;4.40;;;;;;;10.58;39.24;100096.59;1706699;83;21506;-58
2022/05/11 02:15:44;;;;;;;11.18;4.20;;;;;;;10.66;38.94;100092.55;1705975;83;21062;-57
2022/05/11 02:18:11;;;;;;;7.55;3.77;;;;;;;10.69;38.93;100093.48;1706276;83;21928;-56
2022/05/11 02:20:39;;;;;;;6.03;2.85;;;;;;;10.80;38.78;100095.58;1706616;83;21070;-55
2022/05/11 02:23:06;;;;;;;6.42;3.25;;;;;;;10.88;38.63;100098.05;1706798;83;20952;-54
2022/05/11 02:25:33;;;;;;;7.80;3.37;;;;;;;11.10;38.33;100095.38;1705750;83;21208;-56
2022/05/11 02:28:01;;;;;;;6.75;3.33;;;;;;;11.09;38.14;100093.27;1706023;83;21999;-56
2022/05/11 02:30:30;;;;;;;6.67;2.98;;;;;;;11.17;38.03;100095.77;1706297;83;21990;-55
2022/05/11 02:32:58;;;;;;;5.17;3.05;;;;;;;11.25;37.91;100093.97;1681262;83;21141;-55
2022/05/11 02:35:25;;;;;;;6.92;3.12;;;;;;;11.27;37.77;100091.49;1706893;83;20967;-56
2022/05/11 02:37:56;;;;;;;7.80;2.83;;;;;;;11.29;37.75;100086.91;1706025;83;21223;-64
2022/05/11 02:40:26;;;;;;;5.12;2.85;;;;;;;11.37;37.66;100090.66;1706679;83;21041;-55
2022/05/11 02:42:54;;;;;;;5.87;3.50;;;;;;;11.34;37.62;100087.13;1689275;83;21046;-56
2022/05/11 02:45:22;;;;;;;6.50;2.92;;;;;;;11.25;37.82;100091.37;1707383;83;21063;-56
2022/05/11 02:47:51;;;;;;;6.17;2.45;;;;;;;11.33;37.63;100092.55;1706401;83;21003;-57
2022/05/11 02:50:22;;;;;;;5.37;2.42;;;;;;;11.37;37.58;100088.05;1707166;83;21913;-55
2022/05/11 02:52:49;;;;;;;5.58;2.33;;;;;;;11.52;37.33;100090.54;1706897;83;20955;-55
2022/05/11 02:55:16;;;;;;;5.78;2.37;;;;;;;11.62;37.07;100090.97;1681425;83;20971;-55
2022/05/11 02:57:44;;;;;;;4.85;2.62;;;;;;;11.78;36.84;100089.86;1705888;83;20951;-57
2022/05/11 03:00:14;;;;;;;6.45;2.67;;;;;;;11.87;36.65;100088.71;1707463;83;21526;-55
2022/05/11 03:02:42;;;;;;;5.70;2.65;;;;;;;11.99;36.60;100090.77;1707289;83;21559;-55
2022/05/11 03:05:12;;;;;;;4.62;2.05;;;;;;;11.95;36.56;100091.66;1715390;82;21120;-56
2022/05/11 03:07:41;;;;;;;5.70;2.50;;;;;;;12.18;36.40;100093.93;1724893;82;21025;-60
2022/05/11 03:10:09;;;;;;;4.55;2.22;;;;;;;12.28;36.41;100095.67;1724787;82;21486;-54
2022/05/11 03:12:37;;;;;;;5.72;2.55;;;;;;;12.36;36.39;100092.06;1725063;82;20999;-55
2022/05/11 03:15:06;;;;;;;5.20;2.42;;;;;;;12.46;36.10;100091.66;1724796;82;21349;-56
2022/05/11 03:17:35;;;;;;;7.30;2.65;;;;;;;12.56;36.08;100096.81;1724481;82;21014;-64
2022/05/11 03:20:06;;;;;;;7.25;2.67;;;;;;;12.67;36.03;100096.72;1724611;82;21510;-56
2022/05/11 03:22:34;;;;;;;8.38;3.02;;;;;;;12.77;36.01;100091.91;1725694;82;21117;-56
2022/05/11 03:25:01;;;;;;;6.17;2.50;;;;;;;12.88;35.88;100091.30;1724585;82;21014;-56
2022/05/11 03:27:29;;;;;;;4.40;1.92;;;;;;;13.12;35.87;100094.30;1723747;82;21321;-56
2022/05/11 03:29:57;;;;;;;5.10;2.42;;;;;;;13.26;35.85;100100.33;1724724;82;21041;-56
2022/05/11 03:35:10;;;;;;;4.50;2.17;;;;;;;13.37;35.52;100084.00;1717639;82;21029;-63
2022/05/11 03:37:38;;;;;;;6.53;2.00;;;;;;;13.37;34.78;100096.61;1724307;82;21141;-56
2022/05/11 03:40:07;;;;;;;3.65;2.00;;;;;;;13.36;34.68;100083.20;1725731;82;21132;-57
2022/05/11 03:42:36;;;;;;;4.70;2.05;;;;;;;13.44;35.13;100086.61;1724311;82;20891;-56
2022/05/11 03:45:16;;;;;;;4.25;2.17;;;;;;;13.43;35.05;100086.31;1725973;82;21061;-57
2022/05/11 03:47:45;;;;;;;4.17;2.30;;;;;;;13.51;35.60;100087.39;1725679;82;21292;-57
2022/05/11 03:50:12;;;;;;;5.60;2.58;;;;;;;13.50;36.38;100094.45;1723984;83;21078;-57
2022/05/11 03:52:39;;;;;;;8.80;2.72;;;;;;;13.50;36.89;100094.95;1721439;82;21842;-56
2022/05/11 03:55:11;;;;;;;5.65;2.33;;;;;;;13.44;37.25;100094.46;1683472;83;22290;-59
2022/05/11 03:57:40;;;;;;;4.92;2.05;;;;;;;13.44;36.59;100087.91;1714207;82;21084;-58
2022/05/11 04:00:11;;;;;;;4.17;2.20;;;;;;;13.46;36.68;100087.22;1728673;82;21920;-56
2022/05/11 04:02:41;;;;;;;3.27;1.52;;;;;;;13.49;36.77;100094.67;1728722;82;21109;-55
2022/05/11 04:05:10;;;;;;;4.37;2.33;;;;;;;13.52;36.02;100086.38;1726535;82;21136;-63
2022/05/11 04:07:40;;;;;;;4.58;2.25;;;;;;;13.59;35.71;100086.66;1662348;84;21827;-57
2022/05/11 04:10:09;;;;;;;4.00;2.08;;;;;;;13.73;36.25;100086.62;1692673;84;20907;-57
2022/05/11 04:12:36;;;;;;;4.80;2.15;;;;;;;13.84;35.52;100085.46;1692267;83;20924;-56
2022/05/11 04:15:05;;;;;;;4.05;1.92;;;;;;;13.94;36.12;100086.82;1691667;84;21011;-64
2022/05/11 04:17:32;;;;;;;4.92;2.00;;;;;;;14.04;36.51;100092.42;1692948;84;21155;-56
2022/05/11 04:19:59;;;;;;;3.90;2.30;;;;;;;14.18;36.85;100095.28;1693439;84;21137;-55
2022/05/11 04:22:26;;;;;;;4.92;2.02;;;;;;;14.19;37.07;100097.39;1692311;84;21619;-56
2022/05/11 04:24:53;;;;;;;4.85;1.95;;;;;;;14.30;37.11;100094.89;1693666;84;21121;-55
2022/05/11 04:27:21;;;;;;;6.12;2.30;;;;;;;14.40;37.21;100094.95;1691654;84;21063;-62
2022/05/11 04:29:48;;;;;;;5.50;1.85;;;;;;;14.55;37.08;100101.53;1692274;84;21452;-55
2022/05/11 04:32:15;;;;;;;5.67;2.20;;;;;;;14.66;37.08;100093.49;1693477;84;21101;-57
2022/05/11 04:34:43;;;;;;;5.45;2.30;;;;;;;14.77;37.06;100101.16;1692646;84;21057;-55
2022/05/11 04:37:14;;;;;;;5.05;2.37;;;;;;;14.77;37.04;100091.97;1692500;84;21117;-64
2022/05/11 04:39:43;;;;;;;6.45;2.10;;;;;;;14.88;36.92;100092.58;1691423;84;21061;-54
2022/05/11 04:42:11;;;;;;;5.05;1.98;;;;;;;14.98;36.95;100092.11;1691607;84;21344;-57
2022/05/11 04:44:38;;;;;;;4.62;2.00;;;;;;;15.07;36.63;100088.98;1693038;84;21414;-56
2022/05/11 04:47:10;;;;;;;4.83;2.00;;;;;;;15.19;36.55;100088.27;1692558;84;21015;-56
2022/05/11 04:49:39;;;;;;;6.25;1.87;;;;;;;15.31;36.50;100087.86;1692282;84;21070;-56
2022/05/11 04:52:09;;;;;;;3.65;1.67;;;;;;;15.45;36.48;100081.42;1693181;84;21005;-55
2022/05/11 04:54:45;;;;;;;5.42;2.22;;;;;;;15.58;36.26;100081.80;1693214;84;21305;-55
2022/05/11 04:57:12;;;;;;;5.42;1.80;;;;;;;15.70;36.05;100076.12;1692459;84;21049;-55
2022/05/11 04:59:41;;;;;;;3.98;1.77;;;;;;;15.95;36.01;100073.91;1692048;84;21074;-54
2022/05/11 05:02:21;;;;;;;4.12;2.12;;;;;;;16.30;35.84;100077.45;1692293;84;21706;-55
2022/05/11 05:04:49;;;;;;;6.37;1.67;;;;;;;16.66;35.36;100077.50;1691063;83;20950;-58
2022/05/11 05:07:16;;;;;;;3.87;1.80;;;;;;;17.06;34.83;100076.88;1691402;84;21861;-54
2022/05/11 05:09:43;;;;;;;5.83;2.35;;;;;;;17.45;34.26;100072.17;1691234;84;21898;-54
2022/05/11 05:12:13;;;;;;;4.00;1.77;;;;;;;17.55;33.79;100065.53;1691007;84;21007;-55
2022/05/11 05:14:42;;;;;;;4.30;1.90;;;;;;;17.91;33.47;100061.23;1690635;84;21412;-55
2022/05/11 05:17:11;;;;;;;12.93;2.57;;;;;;;18.29;32.97;100066.38;1690702;84;21265;-54
2022/05/11 05:19:43;;;;;;;3.70;1.70;;;;;;;18.63;32.31;100062.44;1692322;84;21895;-54
2022/05/11 05:22:10;;;;;;;3.90;1.83;;;;;;;18.79;31.83;100065.64;1692010;84;21352;-62
2022/05/11 05:24:39;;;;;;;5.10;1.57;;;;;;;18.96;31.34;100059.80;1690581;84;21726;-63
2022/05/11 05:27:06;;;;;;;6.03;1.30;;;;;;;19.25;31.02;100054.91;1691954;83;21173;-54
2022/05/11 05:32:20;;;;;;;4.13;1.50;;;;;;;19.87;29.47;100044.80;1691090;84;21308;-57
2022/05/11 05:34:49;;;;;;;4.57;1.60;;;;;;;20.16;28.68;100041.38;1691473;84;21799;-55
2022/05/11 05:37:17;;;;;;;2.83;1.40;;;;;;;20.44;28.15;100047.41;1692105;84;21358;-55
2022/05/11 05:39:44;;;;;;;5.30;1.60;;;;;;;20.44;28.15;100047.41;1691919;84;21313;-64
2022/05/11 05:42:19;;;;;;;3.77;1.70;;;;;;;20.78;27.63;100045.83;1692020;84;21403;-55
2022/05/11 05:44:46;;;;;;;3.20;1.67;;;;;;;21.06;27.42;100036.70;1691688;84;21512;-55
2022/05/11 05:47:16;;;;;;;3.90;1.50;;;;;;;21.54;27.01;100032.95;1691739;83;21668;-58
2022/05/11 05:49:43;;;;;;;3.90;1.30;;;;;;;21.97;26.28;100030.95;1691544;84;21769;-63
2022/05/11 05:52:18;;;;;;;3.70;1.70;;;;;;;22.57;25.69;100022.71;1690907;84;21819;-57
2022/05/11 05:54:46;;;;;;;4.43;1.40;;;;;;;23.20;25.08;100014.88;1691423;84;21044;-58
2022/05/11 05:57:14;;;;;;;2.80;1.37;;;;;;;23.97;24.37;100013.38;1691681;84;21325;-55
2022/05/11 05:59:42;;;;;;;4.27;2.00;;;;;;;24.68;23.60;100004.00;1691529;84;21002;-63
2022/05/11 06:02:13;;;;;;;2.83;1.20;;;;;;;25.48;22.84;100004.66;1691564;84;21344;-54
2022/05/11 06:04:38;;;;;;;3.50;1.57;;;;;;;26.42;21.96;100002.95;1690378;84;21010;-63
2022/05/11 06:07:06;;;;;;;3.30;1.30;;;;;;;27.22;20.83;99993.69;1691955;83;21560;-54
2022/05/11 06:09:33;;;;;;;2.10;1.23;;;;;;;27.87;20.27;99991.19;1692079;84;21374;-54
2022/05/11 06:12:00;;;;;;;3.57;1.40;;;;;;;28.42;19.74;99981.53;1690931;84;20998;-55
2022/05/11 06:14:29;;;;;;;5.80;2.07;;;;;;;28.91;19.11;99981.55;1690796;83;21132;-54
2022/05/11 06:16:56;;;;;;;4.03;1.80;;;;;;;29.03;18.13;99987.12;1691003;84;21094;-55
2022/05/11 06:19:23;;;;;;;3.13;1.83;;;;;;;29.00;17.77;99978.34;1690888;84;21502;-54
2022/05/11 06:21:51;;;;;;;5.70;1.60;;;;;;;29.37;18.28;99974.29;1678240;84;21274;-58
2022/05/11 06:24:18;;;;;;;4.93;1.43;;;;;;;29.92;17.84;99964.22;1677009;84;20961;-55
2022/05/11 06:26:46;;;;;;;3.90;1.67;;;;;;;30.22;17.43;99967.81;1676871;84;21139;-62
2022/05/11 06:29:13;;;;;;;3.83;1.43;;;;;;;30.24;17.01;99964.26;1677238;84;21140;-54
2022/05/11 06:31:40;;;;;;;3.60;1.80;;;;;;;30.12;16.91;99966.80;1676952;84;21072;-56
2022/05/11 06:34:07;;;;;;;2.40;1.50;;;;;;;29.97;17.02;99960.05;1676726;84;21274;-57
2022/05/11 06:36:35;;;;;;;4.33;1.80;;;;;;;29.97;15.94;99948.50;1677712;84;22024;-54
2022/05/11 06:39:03;;;;;;;4.60;1.90;;;;;;;29.94;15.43;99952.61;1677761;84;21010;-55
2022/05/11 06:41:30;;;;;;;3.23;1.63;;;;;;;29.62;15.36;99966.00;1666132;84;22035;-55
2022/05/11 06:43:58;;;;;;;4.10;1.80;;;;;;;29.64;15.53;99963.80;1718606;82;21053;-62
2022/05/11 06:46:26;;;;;;;2.50;1.40;;;;;;;29.96;15.51;99964.38;1730241;82;21853;-55
2022/05/11 06:48:53;;;;;;;5.43;1.40;;;;;;;30.41;15.06;99956.67;1719478;82;20895;-63
2022/05/11 06:51:21;;;;;;;2.80;1.40;;;;;;;30.57;14.94;99958.25;1729558;82;21014;-55
2022/05/11 06:59:27;;;;;;;4.73;2.10;;;;;;;29.75;14.74;99975.02;1729363;82;22196;-64
2022/05/11 07:01:57;;;;;;;3.40;1.63;;;;;;;29.26;15.00;99965.75;1691533;84;21560;-55
2022/05/11 07:04:24;;;;;;;4.80;1.40;;;;;;;28.94;15.38;99966.14;1662242;86;20995;-55
2022/05/11 07:06:53;;;;;;;6.27;1.70;;;;;;;28.75;15.69;99963.20;1677501;84;21012;-56
2022/05/11 07:09:20;;;;;;;4.10;1.87;;;;;;;28.59;15.88;99982.92;1707970;83;22073;-55
2022/05/11 07:14:34;;;;;;;5.27;2.20;;;;;;;28.11;16.42;99993.56;1709760;83;21453;-60
2022/05/11 07:17:01;;;;;;;3.30;1.70;;;;;;;27.84;16.78;99979.73;1708721;83;21763;-55
2022/05/11 07:19:29;;;;;;;4.07;1.67;;;;;;;27.72;17.00;99986.95;1708825;83;21018;-58
2022/05/11 07:21:56;;;;;;;3.83;1.73;;;;;;;27.45;16.95;99987.05;1709783;83;21085;-55
2022/05/11 07:24:24;;;;;;;5.43;1.53;;;;;;;26.98;17.28;99983.75;1709455;83;21122;-55
2022/05/11 07:26:51;;;;;;;4.47;1.77;;;;;;;26.76;17.60;99977.22;1709424;83;21128;-55
2022/05/11 07:29:19;;;;;;;4.33;2.00;;;;;;;26.71;17.98;99981.34;1709735;83;21039;-56
2022/05/11 07:31:47;;;;;;;6.87;2.03;;;;;;;26.72;18.27;99968.20;1710191;83;21576;-55
2022/05/11 07:34:15;;;;;;;5.20;2.27;;;;;;;26.85;18.25;99976.75;1710059;83;21075;-55
2022/05/11 07:36:44;;;;;;;3.63;1.87;;;;;;;26.79;18.15;99969.16;1708614;83;20976;-57
2022/05/11 07:40:10;;;;;;;5.40;2.73;;;;;;;26.83;18.29;99986.19;1708781;83;21335;-64
2022/05/11 07:42:50;;;;;;;7.67;2.67;;;;;;;27.06;18.18;99978.48;1705128;83;21852;-55
2022/05/11 07:45:17;;;;;;;5.17;2.07;;;;;;;27.55;18.22;99976.13;1709914;83;21097;-55
2022/05/11 07:47:44;;;;;;;4.90;1.90;;;;;;;27.95;18.10;99987.77;1709690;83;20989;-55
2022/05/11 07:50:13;;;;;;;6.63;1.80;;;;;;;28.49;17.87;99981.06;1710069;83;21192;-54
2022/05/11 07:52:42;;;;;;;4.33;2.40;;;;;;;28.78;17.89;99977.30;1707695;82;21054;-55
2022/05/11 07:55:10;;;;;;;6.37;1.97;;;;;;;29.30;18.08;99982.02;1708123;83;21907;-58
2022/05/11 08:00:22;;;;;;;4.40;2.00;;;;;;;29.98;17.19;99975.61;1709640;83;20951;-58
2022/05/11 08:02:49;;;;;;;5.17;2.70;;;;;;;30.13;17.76;99971.06;1707732;83;22296;-54
2022/05/11 08:05:19;;;;;;;4.70;2.50;;;;;;;30.52;17.38;99961.13;1709604;82;20947;-55
2022/05/11 08:07:52;;;;;;;3.57;1.87;;;;;;;30.87;16.97;99960.41;1706808;83;21070;-57
2022/05/11 08:10:31;;;;;;;5.03;2.50;;;;;;;31.07;16.75;99959.44;1707049;83;21050;-55
2022/05/11 08:13:00;;;;;;;4.67;2.53;;;;;;;31.23;16.74;99959.08;1688324;83;21078;-57
2022/05/11 08:15:33;;;;;;;4.63;2.20;;;;;;;31.22;16.60;99954.81;1705846;83;21126;-61
2022/05/11 08:18:01;;;;;;;4.13;2.50;;;;;;;31.24;16.72;99957.39;1706698;83;21839;-55
2022/05/11 08:20:32;;;;;;;3.80;2.13;;;;;;;31.31;16.67;99954.77;1705907;83;21046;-55
2022/05/11 08:23:02;;;;;;;4.63;1.90;;;;;;;31.57;16.10;99956.67;1706740;83;21030;-55
2022/05/11 08:25:31;;;;;;;5.30;1.83;;;;;;;31.55;16.08;99945.43;1705028;83;21023;-57
2022/05/11 08:27:59;;;;;;;4.57;1.53;;;;;;;31.68;16.11;99944.37;1706713;83;22125;-54
2022/05/11 08:33:26;;;;;;;3.77;1.80;;;;;;;32.48;15.63;99929.70;1706467;83;20994;-64
2022/05/11 08:36:00;;;;;;;3.73;1.50;;;;;;;32.87;14.92;99935.50;1706830;83;21067;-62
2022/05/11 08:38:31;;;;;;;5.10;1.50;;;;;;;32.59;14.67;99928.12;1706484;83;21388;-57
2022/05/11 08:41:12;;;;;;;4.47;2.05;;;;;;;32.35;15.22;99922.70;1706730;83;21110;-64
2022/05/11 08:43:40;;;;;;;12.47;2.57;;;;;;;32.43;15.47;99932.64;1706420;83;21109;-63
2022/05/11 08:46:47;;;;;;;4.60;1.67;;;;;;;32.66;14.99;99923.52;1706822;83;20980;-54
2022/05/11 08:49:23;;;;;;;4.63;2.50;;;;;;;32.49;14.84;99920.48;1706818;83;21059;-61
2022/05/11 08:52:05;;;;;;;5.80;3.13;;;;;;;32.29;14.96;99924.06;1687653;83;21466;-54
2022/05/11 08:54:43;;;;;;;5.53;1.70;;;;;;;32.06;15.11;99926.41;1706432;83;21136;-54
2022/05/11 08:57:18;;;;;;;5.13;2.10;;;;;;;31.76;14.84;99929.80;1706304;83;21127;-55
2022/05/11 08:59:45;;;;;;;6.70;2.73;;;;;;;31.27;15.12;99911.52;1706196;83;20998;-62
2022/05/11 09:02:21;;;;;;;5.03;2.77;;;;;;;30.74;15.77;99923.22;1706411;83;21113;-54
2022/05/11 09:04:52;;;;;;;6.10;3.50;;;;;;;30.64;16.03;99923.56;1706313;83;21078;-63
2022/05/11 09:07:19;;;;;;;6.83;4.03;;;;;;;30.80;16.20;99925.18;1708674;83;21110;-54
2022/05/11 09:09:47;;;;;;;13.17;4.33;;;;;;;31.02;15.65;99920.80;1710512;83;20987;-63
2022/05/11 09:12:15;;;;;;;4.90;2.50;;;;;;;30.86;15.70;99921.73;1708616;83;21517;-54
2022/05/11 09:14:49;;;;;;;4.23;1.70;;;;;;;30.56;15.63;99916.33;1709250;83;21580;-56
2022/05/11 09:17:23;;;;;;;3.17;1.60;;;;;;;30.22;15.61;99918.07;1708748;83;21054;-53
2022/05/11 09:20:13;;;;;;;6.37;2.97;;;;;;;29.98;16.17;99906.52;1709370;83;21823;-55
2022/05/11 09:23:04;;;;;;;6.73;2.47;;;;;;;30.14;16.33;99894.67;1709627;83;21606;-59
2022/05/11 09:25:36;;;;;;;4.50;2.80;;;;;;;30.50;15.82;99901.51;1709997;83;28677;-54
2022/05/11 09:28:21;;;;;;;4.00;2.47;;;;;;;30.63;15.75;99905.85;1707459;83;21014;-56
2022/05/11 09:31:17;;;;;;;6.83;2.07;;;;;;;30.58;15.77;99910.08;1688752;83;21066;-63
2022/05/11 09:34:01;;;;;;;7.13;3.03;;;;;;;30.50;15.50;99896.13;1708786;83;21260;-64
2022/05/11 09:36:40;;;;;;;8.13;3.47;;;;;;;30.38;15.72;99888.73;1708982;83;21466;-57
2022/05/11 09:39:16;;;;;;;8.57;3.00;;;;;;;30.30;15.55;99889.56;1710381;83;21590;-56
2022/05/11 09:41:49;;;;;;;5.03;2.40;;;;;;;30.24;15.67;99897.05;1707843;83;21134;-63
2022/05/11 09:44:25;;;;;;;4.17;2.47;;;;;;;30.20;15.70;99889.95;1708151;83;21586;-55
2022/05/11 09:46:52;;;;;;;8.97;3.40;;;;;;;30.30;15.60;99890.35;1708040;82;21240;-54
2022/05/11 09:49:24;;;;;;;5.83;3.77;;;;;;;30.33;15.71;99880.08;1709824;83;21025;-56
2022/05/11 09:51:55;;;;;;;4.70;2.97;;;;;;;30.49;15.62;99886.46;1709815;83;21082;-54
2022/05/11 09:54:38;;;;;;;5.28;2.95;;;;;;;30.43;15.64;99888.56;1707996;83;21560;-55
2022/05/11 09:57:13;;;;;;;5.67;3.13;;;;;;;30.20;15.54;99894.77;1701618;83;22360;-63
2022/05/11 09:59:44;;;;;;;6.50;3.20;;;;;;;29.79;16.17;99875.20;1707556;83;21407;-54
2022/05/11 10:02:30;;;;;;;4.77;2.50;;;;;;;29.86;15.93;99882.78;1708881;83;21323;-55
2022/05/11 10:05:13;;;;;;;16.43;4.90;;;;;;;29.96;16.29;99891.81;1685892;84;21328;-56
2022/05/11 10:08:05;;;;;;;5.00;2.07;;;;;;;30.16;15.91;99885.77;1708928;83;21075;-56
2022/05/11 10:10:43;;;;;;;7.40;2.60;;;;;;;30.33;15.60;99873.35;1706009;83;21295;-55
2022/05/11 10:13:28;;;;;;;15.47;3.43;;;;;;;30.50;15.63;99883.47;1707023;83;21703;-55
2022/05/11 10:22:02;;;;;;;6.20;2.83;;;;;;;30.47;15.56;99868.53;1706168;83;22536;-54
2022/05/11 10:24:58;;;;;;;6.43;3.13;;;;;;;30.78;15.40;99860.12;1706146;83;20963;-55
2022/05/11 10:27:54;;;;;;;5.37;3.13;;;;;;;31.14;15.39;99864.91;1688772;83;21163;-56
2022/05/11 10:30:41;;;;;;;7.17;2.70;;;;;;;31.30;14.96;99855.69;1707299;83;22077;-54
2022/05/11 10:33:42;;;;;;;5.10;2.43;;;;;;;31.15;14.96;99852.23;1697557;83;20972;-55
2022/05/11 10:36:26;;;;;;;4.28;2.22;;;;;;;31.18;15.07;99859.66;1740630;82;21057;-54
2022/05/11 10:39:30;;;;;;;3.53;1.60;;;;;;;31.18;15.02;99848.33;1730012;82;21057;-58
2022/05/11 10:42:23;;;;;;;3.80;1.97;;;;;;;30.95;14.91;99861.88;1739863;82;21282;-56
2022/05/11 10:45:13;;;;;;;4.83;1.70;;;;;;;30.46;15.07;99866.41;1740353;82;20985;-55
2022/05/11 10:48:04;;;;;;;3.23;1.63;;;;;;;30.33;15.17;99847.81;1740634;82;21041;-56
2022/05/11 10:50:51;;;;;;;3.55;1.65;;;;;;;30.33;15.23;99849.16;1739202;82;21262;-55
2022/05/11 10:53:43;;;;;;;5.73;2.70;;;;;;;30.47;15.19;99861.25;1741003;82;21064;-61
2022/05/11 10:56:39;;;;;;;4.57;3.00;;;;;;;30.53;14.93;99846.51;1733723;82;21158;-54
2022/05/11 10:59:40;;;;;;;4.80;2.53;;;;;;;30.52;14.69;99837.41;1732820;82;20982;-56
2022/05/11 11:02:41;;;;;;;5.57;2.30;;;;;;;30.48;14.93;99847.23;1733999;82;21463;-60
2022/05/11 11:05:15;;;;;;;8.50;4.53;;;;;;;30.33;15.07;99850.50;1740518;82;20986;-55
2022/05/11 11:08:16;;;;;;;6.17;4.10;;;;;;;30.26;14.97;99846.41;1733726;82;21058;-62
2022/05/11 11:10:57;;;;;;;4.83;2.87;;;;;;;30.06;15.29;99845.22;1718736;82;21229;-56
2022/05/11 11:13:58;;;;;;;3.67;1.90;;;;;;;30.20;15.21;99842.34;1657607;86;21210;-57
2022/05/11 11:16:27;;;;;;;5.20;1.93;;;;;;;30.47;14.87;99845.67;1678574;85;20995;-56
2022/05/11 11:18:54;;;;;;;;;;;;;;;30.42;14.69;99841.28;1677943;83;21521;-64
2022/05/11 11:21:22;;;;;;;2.90;1.80;;;;;;;30.05;14.87;99838.83;1709696;83;20184;-56
2022/05/11 11:24:25;;;;;;;3.60;1.80;;;;;;;29.85;15.16;99836.28;1709584;83;21178;-57
2022/05/11 11:27:00;;;;;;;6.20;3.03;;;;;;;29.58;15.32;99846.33;1708419;83;21007;-55
2022/05/11 11:29:32;;;;;;;10.07;6.03;;;;;;;29.49;15.58;99845.54;1708293;83;21903;-55
2022/05/11 11:32:08;;;;;;;11.13;5.50;;;;;;;29.33;15.55;99846.59;1708909;83;21093;-56
2022/05/11 11:34:39;;;;;;;7.80;3.53;;;;;;;29.00;15.58;99851.67;1709016;83;21063;-55
2022/05/11 11:37:39;;;;;;;5.75;2.47;;;;;;;28.88;15.77;99856.06;1709504;83;21902;-56
2022/05/11 11:40:17;;;;;;;9.13;2.67;;;;;;;28.82;15.88;99860.78;1708384;83;20999;-55
2022/05/11 11:42:45;;;;;;;5.10;2.97;;;;;;;28.71;15.77;99847.44;1709045;82;20952;-56
2022/05/11 11:45:41;;;;;;;5.80;2.83;;;;;;;28.60;16.09;99853.64;1708915;83;21550;-55
2022/05/11 11:48:23;;;;;;;5.67;3.60;;;;;;;28.57;16.29;99849.72;1709850;83;21052;-56
2022/05/11 11:50:55;;;;;;;11.47;5.53;;;;;;;28.50;16.17;99862.79;1709057;83;21152;-55
2022/05/11 11:53:36;;;;;;;11.43;7.30;;;;;;;28.28;16.32;99869.00;1709821;83;21006;-56
2022/05/11 11:56:28;;;;;;;11.65;6.65;;;;;;;28.01;16.62;99875.92;1709003;83;21133;-55
2022/05/11 11:59:25;;;;;;;8.50;5.37;;;;;;;27.84;16.76;99865.38;1695282;83;21524;-56
2022/05/11 12:02:19;;;;;;;8.50;4.80;;;;;;;27.65;16.88;99873.59;1687736;83;21133;-55
2022/05/11 12:05:09;;;;;;;7.70;3.67;;;;;;;27.40;17.24;99869.63;1708972;83;21652;-53
2022/05/11 12:16:53;;;;;;;8.77;5.60;;;;;;;27.04;17.57;99873.64;1707689;83;21564;-61
2022/05/11 12:19:21;;;;;;;8.90;5.60;;;;;;;26.86;17.50;99877.28;1710018;83;21562;-54
2022/05/11 12:22:04;;;;;;;14.80;6.53;;;;;;;26.56;17.58;99878.71;1710240;83;21017;-54
2022/05/11 12:24:42;;;;;;;9.20;5.90;;;;;;;26.49;17.62;99880.44;1709157;83;21611;-56
2022/05/11 12:27:24;;;;;;;12.67;7.13;;;;;;;26.34;17.76;99885.51;1710419;83;21045;-55
2022/05/11 12:30:02;;;;;;;16.17;8.40;;;;;;;26.19;18.08;99887.13;1691384;83;21523;-64
2022/05/11 12:32:35;;;;;;;13.50;10.17;;;;;;;26.23;18.28;99886.79;1709208;83;21821;-55
2022/05/11 12:35:18;;;;;;;17.30;10.60;;;;;;;26.21;18.09;99886.28;1710338;83;21062;-54